Time;durP1;ratioP1;P1;durP2;ratioP2;P2;SDS_P1;SDS_P2;PMS_P1;PMS_P2;Temp;Humidity;BMP_temperature;BMP_pressure;BME280_temperature;BME280_humidity;BME280_pressure;Samples;Min_cycle;Max_cycle;Signal;HPM_P1;HPM_P2
2022/07/20 00:01:49;;;;;;;15.05;4.20;;;26.60;73.70;;;;;;5083608;28;20055;-72
2022/07/20 00:04:16;;;;;;;8.52;3.97;;;26.70;74.30;;;;;;5083401;28;20036;-73
2022/07/20 00:06:42;;;;;;;8.73;4.30;;;26.60;74.60;;;;;;5082308;28;20025;-72
2022/07/20 00:11:52;;;;;;;10.52;4.50;;;26.60;74.80;;;;;;5085348;28;20397;-73
2022/07/20 00:14:18;;;;;;;7.70;4.65;;;26.60;74.50;;;;;;5084417;28;20528;-72
2022/07/20 00:16:43;;;;;;;8.85;4.30;;;26.60;74.00;;;;;;5089946;28;20457;-72
2022/07/20 00:19:09;;;;;;;8.85;4.07;;;26.60;74.40;;;;;;5078828;28;20031;-72
2022/07/20 00:21:35;;;;;;;6.82;3.83;;;26.60;74.20;;;;;;5091159;28;20027;-72
2022/07/20 00:24:01;;;;;;;5.57;3.53;;;26.50;74.90;;;;;;5083954;28;20131;-72
2022/07/20 00:26:26;;;;;;;10.70;4.47;;;26.50;73.90;;;;;;5091527;28;20086;-72
2022/07/20 00:28:52;;;;;;;12.43;4.43;;;26.60;74.60;;;;;;5082769;28;20031;-72
2022/07/20 00:31:18;;;;;;;7.13;4.25;;;26.50;74.60;;;;;;5090427;28;20019;-73
2022/07/20 00:33:48;;;;;;;7.63;3.72;;;26.50;74.80;;;;;;5088676;28;20028;-72
2022/07/20 00:36:15;;;;;;;6.43;4.20;;;26.50;75.10;;;;;;5088050;28;20017;-72
2022/07/20 00:38:41;;;;;;;4.32;3.72;;;26.50;76.50;;;;;;5081995;28;20044;-72
2022/07/20 00:41:07;;;;;;;9.40;4.68;;;26.50;79.30;;;;;;5084145;28;20017;-72
2022/07/20 00:43:52;;;;;;;9.90;4.30;;;26.40;80.90;;;;;;5086943;28;20043;-72
2022/07/20 00:46:17;;;;;;;8.00;4.60;;;26.20;77.20;;;;;;5081350;28;20546;-72
2022/07/20 00:48:43;;;;;;;7.47;4.22;;;25.90;78.40;;;;;;5082215;28;20062;-71
2022/07/20 00:51:09;;;;;;;10.30;4.00;;;25.80;79.80;;;;;;5085268;28;20381;-72
2022/07/20 00:53:35;;;;;;;5.45;4.22;;;25.90;80.40;;;;;;5086715;28;20031;-72
2022/07/20 00:56:01;;;;;;;9.18;4.18;;;26.00;80.50;;;;;;5081378;28;20031;-71
2022/07/20 00:58:26;;;;;;;7.30;3.80;;;25.90;76.80;;;;;;5084296;28;20034;-72
2022/07/20 01:00:52;;;;;;;10.02;4.38;;;26.00;79.70;;;;;;5080651;28;20016;-71
2022/07/20 01:03:18;;;;;;;8.32;4.80;;;26.00;78.40;;;;;;5085574;28;20074;-72
2022/07/20 01:05:43;;;;;;;7.47;4.60;;;26.00;76.90;;;;;;5088739;28;20027;-72
2022/07/20 01:08:09;;;;;;;5.90;4.53;;;26.00;76.30;;;;;;5081715;28;20085;-72
2022/07/20 01:10:35;;;;;;;7.30;4.03;;;26.00;76.50;;;;;;5089926;28;20456;-72
2022/07/20 01:13:01;;;;;;;5.68;3.83;;;25.90;77.20;;;;;;5081645;28;20496;-72
2022/07/20 01:15:26;;;;;;;7.75;4.25;;;25.90;76.60;;;;;;5091108;28;20051;-72
2022/07/20 01:17:52;;;;;;;9.32;4.20;;;25.90;77.30;;;;;;5084204;28;20039;-72
2022/07/20 01:20:18;;;;;;;11.82;4.10;;;25.90;76.80;;;;;;5085951;28;20024;-72
2022/07/20 01:22:45;;;;;;;5.78;4.15;;;25.90;77.40;;;;;;5084575;28;20039;-73
2022/07/20 01:25:11;;;;;;;7.18;4.15;;;25.90;76.90;;;;;;5083085;28;20047;-72
2022/07/20 01:27:37;;;;;;;6.03;4.25;;;25.70;76.60;;;;;;5087214;28;20439;-72
2022/07/20 01:30:03;;;;;;;6.50;3.72;;;25.70;76.40;;;;;;5087507;28;20028;-72
2022/07/20 01:32:29;;;;;;;7.25;4.32;;;25.50;79.20;;;;;;5080993;28;20469;-72
2022/07/20 01:34:54;;;;;;;6.93;4.55;;;25.40;80.00;;;;;;5083528;28;20035;-73
2022/07/20 01:37:20;;;;;;;14.00;4.20;;;25.10;80.00;;;;;;5079886;28;20024;-71
2022/07/20 01:39:46;;;;;;;9.98;4.55;;;25.20;79.20;;;;;;5085046;28;20032;-71
2022/07/20 01:42:11;;;;;;;7.32;4.45;;;25.10;79.50;;;;;;5083851;28;20040;-72
2022/07/20 01:44:37;;;;;;;9.77;4.78;;;25.20;80.20;;;;;;5090220;28;20037;-73
2022/07/20 01:47:03;;;;;;;9.43;4.60;;;25.30;80.00;;;;;;5084444;28;20039;-72
2022/07/20 01:49:28;;;;;;;8.98;4.03;;;25.40;80.70;;;;;;5085002;28;20062;-71
2022/07/20 01:51:54;;;;;;;12.15;4.60;;;25.30;80.20;;;;;;5084994;28;20346;-71
2022/07/20 01:54:20;;;;;;;5.72;4.63;;;25.30;80.60;;;;;;5088638;28;20031;-71
2022/07/20 01:56:46;;;;;;;7.25;4.28;;;25.30;80.50;;;;;;5088920;28;20051;-70
2022/07/20 01:59:11;;;;;;;5.20;4.10;;;25.30;81.80;;;;;;5082761;28;20465;-70
2022/07/20 02:01:38;;;;;;;6.38;4.38;;;25.30;81.80;;;;;;5081275;28;20016;-71
2022/07/20 02:04:04;;;;;;;9.00;5.38;;;25.20;80.70;;;;;;5085031;28;20111;-71
2022/07/20 02:06:30;;;;;;;9.00;4.88;;;25.10;80.70;;;;;;5089556;28;20024;-71
2022/07/20 02:08:55;;;;;;;7.05;4.55;;;25.10;81.50;;;;;;5088189;28;20016;-72
2022/07/20 02:11:21;;;;;;;7.60;4.43;;;25.10;81.80;;;;;;5088126;28;20483;-71
2022/07/20 02:13:47;;;;;;;14.85;5.40;;;25.00;82.00;;;;;;5080469;28;20103;-70
2022/07/20 02:16:15;;;;;;;8.15;4.60;;;25.10;81.50;;;;;;5088769;28;20020;-71
2022/07/20 02:18:52;;;;;;;12.02;4.97;;;25.10;81.30;;;;;;5088750;28;20052;-70
2022/07/20 02:21:20;;;;;;;7.75;4.45;;;25.00;81.20;;;;;;5091035;28;20399;-71
2022/07/20 02:23:47;;;;;;;8.07;4.93;;;25.00;81.70;;;;;;5084163;28;20119;-70
2022/07/20 02:26:12;;;;;;;5.82;5.18;;;25.10;81.90;;;;;;5088157;28;20495;-70
2022/07/20 02:28:39;;;;;;;9.00;4.75;;;25.00;81.50;;;;;;5078306;28;20029;-71
2022/07/20 02:31:05;;;;;;;5.97;4.85;;;24.90;82.30;;;;;;5082483;28;20021;-72
2022/07/20 02:33:32;;;;;;;9.60;5.35;;;24.90;81.80;;;;;;5082667;28;20032;-71
2022/07/20 02:35:58;;;;;;;12.15;4.97;;;24.90;82.80;;;;;;5084888;28;20028;-70
2022/07/20 02:38:24;;;;;;;7.60;4.70;;;24.90;82.70;;;;;;5082974;28;20032;-71
2022/07/20 02:40:50;;;;;;;6.10;4.85;;;24.90;82.70;;;;;;5085077;28;20074;-71
2022/07/20 02:43:16;;;;;;;7.55;5.25;;;24.90;82.10;;;;;;5082231;28;20036;-72
2022/07/20 02:45:42;;;;;;;9.80;6.40;;;24.80;83.00;;;;;;5077764;28;20027;-71
2022/07/20 02:48:07;;;;;;;9.80;4.70;;;24.80;82.90;;;;;;5089461;28;20077;-70
2022/07/20 02:50:36;;;;;;;6.80;4.95;;;24.80;83.50;;;;;;5089622;28;20031;-72
2022/07/20 02:53:06;;;;;;;11.13;5.82;;;24.80;83.40;;;;;;5085971;28;20099;-72
2022/07/20 02:55:32;;;;;;;11.80;5.65;;;24.80;82.70;;;;;;5091292;28;20092;-72
2022/07/20 02:57:58;;;;;;;8.68;5.97;;;24.80;82.00;;;;;;5083459;28;20033;-72
2022/07/20 03:00:25;;;;;;;9.13;4.97;;;24.70;81.90;;;;;;5087480;28;20388;-72
2022/07/20 03:02:50;;;;;;;9.55;6.10;;;24.70;82.80;;;;;;5087176;28;20056;-72
2022/07/20 03:05:17;;;;;;;11.60;6.47;;;24.70;81.90;;;;;;5086944;28;20037;-73
2022/07/20 03:07:43;;;;;;;12.90;7.35;;;24.70;83.40;;;;;;5082006;28;20020;-72
2022/07/20 03:10:09;;;;;;;9.35;5.70;;;24.70;83.10;;;;;;5077518;28;20024;-72
2022/07/20 03:12:34;;;;;;;12.20;8.32;;;24.60;83.70;;;;;;5087341;28;20015;-72
2022/07/20 03:15:00;;;;;;;8.27;6.93;;;24.60;83.90;;;;;;5084574;28;20477;-71
2022/07/20 03:17:26;;;;;;;10.23;8.15;;;24.60;84.40;;;;;;5082945;28;20027;-72
2022/07/20 03:19:53;;;;;;;11.02;8.73;;;24.60;84.10;;;;;;5082190;28;20063;-72
2022/07/20 03:22:18;;;;;;;16.33;9.07;;;24.60;84.60;;;;;;5085564;28;20522;-72
2022/07/20 03:24:44;;;;;;;10.77;8.30;;;24.60;84.40;;;;;;5075976;28;20070;-72
2022/07/20 03:27:10;;;;;;;14.93;9.43;;;24.60;84.80;;;;;;5083189;28;20366;-72
2022/07/20 03:29:36;;;;;;;15.85;10.50;;;24.60;84.70;;;;;;5092263;28;20491;-72
2022/07/20 03:32:02;;;;;;;17.08;11.88;;;24.60;85.70;;;;;;5087938;28;20095;-72
2022/07/20 03:34:28;;;;;;;16.42;14.60;;;24.50;85.40;;;;;;5084961;28;20032;-71
2022/07/20 03:36:53;;;;;;;17.77;13.20;;;24.50;85.50;;;;;;5088801;28;20025;-72
2022/07/20 03:39:19;;;;;;;21.38;14.65;;;24.60;85.70;;;;;;5092031;28;20024;-73
2022/07/20 03:41:45;;;;;;;15.27;13.77;;;24.50;85.50;;;;;;5088228;28;20013;-71
2022/07/20 03:44:11;;;;;;;18.45;14.88;;;24.60;86.10;;;;;;5082040;28;20138;-72
2022/07/20 03:46:36;;;;;;;22.27;15.27;;;24.60;85.20;;;;;;5092016;28;20051;-72
2022/07/20 03:49:03;;;;;;;19.55;14.52;;;24.60;85.30;;;;;;5087414;28;20473;-72
2022/07/20 03:51:28;;;;;;;20.75;14.38;;;24.50;86.00;;;;;;5091980;28;20385;-72
2022/07/20 03:53:54;;;;;;;25.52;16.50;;;24.50;87.20;;;;;;5090245;28;20024;-72
2022/07/20 03:56:20;;;;;;;27.25;17.27;;;24.50;86.50;;;;;;5088407;28;20064;-72
2022/07/20 03:58:46;;;;;;;23.33;16.40;;;24.50;86.70;;;;;;5087173;28;20106;-73
2022/07/20 04:01:12;;;;;;;28.70;18.50;;;24.50;88.80;;;;;;5086107;28;21592;-72
2022/07/20 04:03:37;;;;;;;28.38;20.98;;;24.50;89.20;;;;;;5091087;28;20400;-73
2022/07/20 04:06:03;;;;;;;28.45;20.67;;;24.50;87.90;;;;;;5078754;28;20461;-71
2022/07/20 04:08:29;;;;;;;33.33;22.40;;;24.50;88.60;;;;;;5085571;28;20469;-72
2022/07/20 04:10:54;;;;;;;31.30;23.05;;;24.50;87.60;;;;;;5084444;28;20468;-72
2022/07/20 04:13:20;;;;;;;34.83;22.67;;;24.50;88.30;;;;;;5090116;28;20020;-72
2022/07/20 04:15:47;;;;;;;34.28;22.48;;;24.50;90.90;;;;;;5080467;28;20376;-73
2022/07/20 04:18:16;;;;;;;33.78;24.27;;;24.60;88.90;;;;;;5079679;28;20419;-72
2022/07/20 04:20:41;;;;;;;33.20;21.42;;;24.60;88.90;;;;;;5087792;28;20024;-72
2022/07/20 04:23:07;;;;;;;30.80;22.20;;;24.60;88.60;;;;;;5087310;28;20036;-72
2022/07/20 04:25:33;;;;;;;33.92;21.17;;;24.70;88.80;;;;;;5082626;28;20572;-72
2022/07/20 04:27:58;;;;;;;30.02;24.17;;;24.60;89.60;;;;;;5083640;28;20025;-73
2022/07/20 04:30:24;;;;;;;33.10;23.70;;;24.70;88.60;;;;;;5085530;28;20028;-72
2022/07/20 04:32:50;;;;;;;31.63;23.48;;;24.70;90.80;;;;;;5088120;28;20368;-73
2022/07/20 04:35:16;;;;;;;36.40;23.98;;;24.80;89.30;;;;;;5089713;28;20095;-72
2022/07/20 04:37:41;;;;;;;33.08;25.15;;;24.80;89.10;;;;;;5084189;28;20487;-71
2022/07/20 04:40:08;;;;;;;38.35;25.27;;;24.80;89.50;;;;;;5088141;28;20410;-73
2022/07/20 04:42:34;;;;;;;33.47;24.73;;;24.80;89.00;;;;;;5083067;28;20028;-72
2022/07/20 04:44:59;;;;;;;35.58;25.95;;;24.80;90.00;;;;;;5083891;28;20037;-73
2022/07/20 04:47:25;;;;;;;42.35;27.15;;;24.90;90.60;;;;;;5085472;28;20024;-73
2022/07/20 04:49:51;;;;;;;40.33;27.00;;;24.90;89.90;;;;;;5079921;28;20024;-73
2022/07/20 04:52:16;;;;;;;33.28;26.73;;;24.90;90.20;;;;;;5082998;28;20035;-72
2022/07/20 04:54:42;;;;;;;35.92;28.02;;;24.90;90.70;;;;;;5090553;28;20032;-72
2022/07/20 04:57:08;;;;;;;31.83;26.73;;;25.00;90.40;;;;;;5086325;28;20477;-71
2022/07/20 04:59:34;;;;;;;37.25;28.48;;;25.00;91.90;;;;;;5083864;28;20024;-72
2022/07/20 05:02:00;;;;;;;36.42;27.55;;;25.00;91.20;;;;;;5084899;28;20495;-71
2022/07/20 05:04:25;;;;;;;42.20;28.33;;;25.00;92.20;;;;;;5088943;28;20093;-71
2022/07/20 05:06:51;;;;;;;36.28;28.88;;;25.00;90.70;;;;;;5086845;28;20086;-72
2022/07/20 05:09:16;;;;;;;30.38;25.00;;;25.00;93.80;;;;;;5081435;28;20031;-72
2022/07/20 05:11:42;;;;;;;28.08;24.02;;;25.00;91.60;;;;;;5085773;28;20024;-72
2022/07/20 05:14:11;;;;;;;35.53;25.92;;;25.10;91.80;;;;;;5079414;28;20130;-69
2022/07/20 05:16:37;;;;;;;36.80;24.05;;;25.10;91.30;;;;;;5086891;28;20024;-68
2022/07/20 05:19:03;;;;;;;30.60;24.33;;;25.10;91.90;;;;;;5080974;28;20381;-68
2022/07/20 05:21:29;;;;;;;34.70;24.23;;;25.10;90.90;;;;;;5088297;28;20016;-68
2022/07/20 05:23:55;;;;;;;31.42;25.02;;;25.10;91.50;;;;;;5079672;28;20385;-68
2022/07/20 05:26:20;;;;;;;37.28;25.65;;;25.10;91.10;;;;;;5091271;28;20392;-68
2022/07/20 05:28:46;;;;;;;35.75;26.98;;;25.10;91.40;;;;;;5079472;28;20036;-68
2022/07/20 05:31:15;;;;;;;34.13;25.52;;;25.10;91.20;;;;;;5083162;28;20164;-68
2022/07/20 05:33:41;;;;;;;39.30;26.77;;;25.10;92.40;;;;;;5085397;28;20020;-68
2022/07/20 05:36:08;;;;;;;36.30;26.23;;;25.00;93.30;;;;;;5076152;28;20048;-69
2022/07/20 05:38:34;;;;;;;30.85;24.90;;;25.00;92.40;;;;;;5087848;28;20024;-68
2022/07/20 05:40:59;;;;;;;32.35;24.58;;;25.10;91.30;;;;;;5077887;28;20070;-68
2022/07/20 05:43:25;;;;;;;32.95;23.58;;;25.10;92.90;;;;;;5087977;28;20037;-68
2022/07/20 05:45:51;;;;;;;35.53;24.33;;;25.10;92.20;;;;;;5087158;28;20469;-68
2022/07/20 05:48:16;;;;;;;31.13;24.83;;;25.20;92.00;;;;;;5087122;28;20511;-68
2022/07/20 05:50:43;;;;;;;43.45;23.80;;;25.20;91.50;;;;;;5079704;28;20031;-68
2022/07/20 05:53:10;;;;;;;35.50;24.67;;;25.20;92.80;;;;;;5082621;28;20016;-68
2022/07/20 05:55:36;;;;;;;33.05;23.63;;;25.30;93.50;;;;;;5077685;28;20476;-69
2022/07/20 05:58:03;;;;;;;34.17;25.40;;;25.30;92.80;;;;;;5087778;28;20025;-68
2022/07/20 06:00:28;;;;;;;33.85;24.95;;;25.40;92.90;;;;;;5079356;28;20024;-69
2022/07/20 06:02:54;;;;;;;31.50;24.08;;;25.50;93.60;;;;;;5086700;28;20085;-69
2022/07/20 06:05:20;;;;;;;35.90;24.95;;;25.50;94.00;;;;;;5088442;28;20012;-69
2022/07/20 06:07:45;;;;;;;33.10;24.17;;;25.50;92.30;;;;;;5082715;28;20457;-68
2022/07/20 06:10:11;;;;;;;33.67;22.90;;;25.50;93.40;;;;;;5086101;28;21232;-69
2022/07/20 06:12:37;;;;;;;30.67;21.67;;;25.50;92.50;;;;;;5086900;28;20437;-70
2022/07/20 06:15:03;;;;;;;30.50;22.02;;;25.40;92.70;;;;;;5083106;28;20040;-72
2022/07/20 06:17:33;;;;;;;30.42;21.27;;;25.40;92.90;;;;;;5090840;28;20019;-72
2022/07/20 06:20:09;;;;;;;30.13;20.48;;;25.50;92.90;;;;;;5086298;28;20112;-72
2022/07/20 06:22:39;;;;;;;29.20;21.88;;;25.50;92.70;;;;;;5081436;28;20072;-71
2022/07/20 06:25:06;;;;;;;28.20;19.92;;;25.50;92.70;;;;;;5082156;28;20082;-72
2022/07/20 06:27:32;;;;;;;32.90;21.58;;;25.50;93.10;;;;;;5083669;28;20032;-72
2022/07/20 06:29:58;;;;;;;28.67;19.83;;;25.60;92.70;;;;;;5075699;28;20025;-72
2022/07/20 06:32:25;;;;;;;29.10;21.75;;;25.60;92.50;;;;;;5089882;28;20024;-72
2022/07/20 06:34:50;;;;;;;26.55;19.55;;;25.50;93.20;;;;;;5084840;28;20161;-71
2022/07/20 06:37:16;;;;;;;33.63;22.13;;;25.60;92.70;;;;;;5080446;28;20110;-72
2022/07/20 06:39:42;;;;;;;29.17;20.23;;;25.60;92.90;;;;;;5079259;28;20476;-72
2022/07/20 06:42:07;;;;;;;30.13;21.40;;;25.70;93.40;;;;;;5086458;28;20022;-72
2022/07/20 06:44:33;;;;;;;32.42;20.95;;;25.60;93.30;;;;;;5078904;28;20027;-72
2022/07/20 06:46:59;;;;;;;31.27;19.40;;;25.60;92.50;;;;;;5083157;28;20103;-72
2022/07/20 06:49:26;;;;;;;24.35;18.90;;;25.60;93.60;;;;;;5080550;28;20043;-72
2022/07/20 06:51:51;;;;;;;34.30;19.15;;;25.50;93.10;;;;;;5080881;28;20040;-72
2022/07/20 06:54:17;;;;;;;28.75;20.20;;;25.60;92.20;;;;;;5083987;28;20031;-72
2022/07/20 06:56:42;;;;;;;25.30;19.60;;;25.70;93.50;;;;;;5079342;28;20115;-72
2022/07/20 06:59:08;;;;;;;29.13;20.35;;;25.60;92.70;;;;;;5085433;28;20028;-72
2022/07/20 07:01:34;;;;;;;24.95;19.33;;;25.70;93.20;;;;;;5088917;28;20028;-72
2022/07/20 07:03:59;;;;;;;29.05;21.23;;;25.70;94.10;;;;;;5087240;28;20032;-72
2022/07/20 07:06:28;;;;;;;28.38;20.38;;;25.70;93.90;;;;;;5085834;28;20032;-73
2022/07/20 07:08:55;;;;;;;26.63;20.20;;;25.80;93.50;;;;;;5081533;28;20062;-68
2022/07/20 07:11:20;;;;;;;29.90;21.33;;;25.80;93.90;;;;;;5085407;28;20541;-68
2022/07/20 07:13:46;;;;;;;29.08;21.23;;;25.70;94.00;;;;;;5088215;28;20099;-72
2022/07/20 07:16:12;;;;;;;26.65;19.63;;;25.80;94.10;;;;;;5085375;28;20032;-68
2022/07/20 07:18:37;;;;;;;28.52;20.05;;;25.80;94.40;;;;;;5082893;28;20023;-68
2022/07/20 07:21:03;;;;;;;21.40;17.33;;;26.00;94.20;;;;;;5079551;28;20020;-71
2022/07/20 07:23:29;;;;;;;24.60;18.27;;;26.10;93.80;;;;;;5089793;28;20035;-71
2022/07/20 07:25:55;;;;;;;26.15;18.92;;;26.30;93.80;;;;;;5090487;28;20024;-71
2022/07/20 07:28:21;;;;;;;23.42;17.10;;;26.40;93.40;;;;;;5088130;28;20077;-71
2022/07/20 07:30:49;;;;;;;23.67;17.67;;;26.50;93.30;;;;;;5092340;28;20031;-71
2022/07/20 07:33:15;;;;;;;24.17;16.77;;;26.50;93.40;;;;;;5088444;28;20081;-72
2022/07/20 07:35:40;;;;;;;24.05;16.65;;;26.70;93.30;;;;;;5081346;28;20025;-72
2022/07/20 07:38:06;;;;;;;24.77;17.40;;;26.70;92.70;;;;;;5076507;28;20024;-69
2022/07/20 07:40:31;;;;;;;19.85;17.15;;;26.80;92.80;;;;;;5084167;28;20492;-72
2022/07/20 07:42:57;;;;;;;22.00;16.95;;;26.80;93.10;;;;;;5086422;28;20020;-70
2022/07/20 07:45:23;;;;;;;24.17;16.38;;;26.80;92.80;;;;;;5084714;28;20036;-69
2022/07/20 07:47:48;;;;;;;19.98;15.80;;;26.90;92.30;;;;;;5076265;28;20473;-69
2022/07/20 07:50:15;;;;;;;22.38;15.77;;;26.90;92.00;;;;;;5088491;28;20491;-69
2022/07/20 07:52:40;;;;;;;21.90;14.18;;;27.00;91.80;;;;;;5083107;28;20368;-69
2022/07/20 07:55:06;;;;;;;20.23;13.18;;;27.10;91.90;;;;;;5087010;28;20020;-69
2022/07/20 07:57:32;;;;;;;21.85;13.45;;;27.10;91.90;;;;;;5080877;28;20039;-69
2022/07/20 07:59:57;;;;;;;17.70;14.35;;;27.30;91.50;;;;;;5078731;28;20020;-69
2022/07/20 08:02:23;;;;;;;20.05;11.93;;;27.30;91.40;;;;;;5088277;28;20058;-70
2022/07/20 08:04:50;;;;;;;16.48;12.85;;;27.50;92.00;;;;;;5090368;28;20542;-69
2022/07/20 08:07:15;;;;;;;23.10;13.15;;;27.50;91.20;;;;;;5082683;28;20017;-70
2022/07/20 08:09:41;;;;;;;19.95;12.98;;;27.50;91.10;;;;;;5078464;28;20027;-69
2022/07/20 08:12:07;;;;;;;16.90;12.93;;;27.50;91.30;;;;;;5081513;28;20012;-70
2022/07/20 08:14:32;;;;;;;23.10;12.75;;;27.50;91.20;;;;;;5082725;28;20035;-69
2022/07/20 08:16:58;;;;;;;17.17;13.00;;;27.60;91.10;;;;;;5086658;28;20019;-69
2022/07/20 08:19:24;;;;;;;15.05;12.07;;;27.90;91.40;;;;;;5087609;28;20024;-70
2022/07/20 08:21:49;;;;;;;22.52;13.20;;;28.10;90.90;;;;;;5085443;28;20472;-69
2022/07/20 08:24:16;;;;;;;19.42;13.13;;;28.30;90.60;;;;;;5092203;28;20029;-69
2022/07/20 08:26:43;;;;;;;18.05;12.65;;;28.40;90.90;;;;;;5088102;28;20025;-70
2022/07/20 08:29:09;;;;;;;18.38;12.55;;;28.40;90.90;;;;;;5084736;28;20024;-70
2022/07/20 08:31:34;;;;;;;16.33;12.10;;;28.40;90.10;;;;;;5090757;28;20016;-70
2022/07/20 08:34:00;;;;;;;16.25;11.95;;;28.40;90.40;;;;;;5087852;28;20028;-69
2022/07/20 08:36:26;;;;;;;18.83;13.05;;;28.30;90.20;;;;;;5092061;28;20020;-69
2022/07/20 08:38:51;;;;;;;19.15;13.32;;;28.10;89.50;;;;;;5088022;28;20032;-69
2022/07/20 08:41:18;;;;;;;14.85;12.05;;;28.00;90.30;;;;;;5085044;28;20028;-69
2022/07/20 08:43:44;;;;;;;14.68;11.60;;;27.90;90.60;;;;;;5083838;28;20023;-70
2022/07/20 08:46:11;;;;;;;19.42;12.65;;;27.90;90.40;;;;;;5085969;28;20036;-69
2022/07/20 08:48:39;;;;;;;15.38;11.77;;;27.80;90.50;;;;;;5085444;28;20021;-70
2022/07/20 08:51:05;;;;;;;13.65;10.98;;;27.80;90.70;;;;;;5088945;28;20033;-69
2022/07/20 08:53:30;;;;;;;17.20;11.75;;;27.70;91.10;;;;;;5085822;28;20026;-69
2022/07/20 08:55:56;;;;;;;12.85;10.80;;;27.60;90.50;;;;;;5082184;28;20036;-69
2022/07/20 08:58:22;;;;;;;15.15;11.32;;;27.70;91.00;;;;;;5089774;28;20024;-69
2022/07/20 09:00:47;;;;;;;16.27;10.93;;;27.90;90.80;;;;;;5088286;28;20141;-70
2022/07/20 09:03:13;;;;;;;19.90;10.57;;;28.10;90.80;;;;;;5091390;28;20020;-70
2022/07/20 09:05:40;;;;;;;14.35;11.60;;;28.20;91.00;;;;;;5082528;28;20107;-70
2022/07/20 09:08:11;;;;;;;15.75;11.23;;;28.20;90.80;;;;;;5085407;28;20059;-70
2022/07/20 09:10:40;;;;;;;15.38;10.88;;;28.40;90.50;;;;;;5089777;28;20039;-73
2022/07/20 09:13:13;;;;;;;19.08;12.15;;;28.40;90.80;;;;;;5084087;28;20496;-72
2022/07/20 09:15:48;;;;;;;14.43;10.90;;;28.30;90.40;;;;;;5080143;28;20032;-72
2022/07/20 09:18:13;;;;;;;15.15;12.10;;;28.40;90.50;;;;;;5088694;28;20024;-71
2022/07/20 09:21:01;;;;;;;15.52;10.93;;;28.30;90.30;;;;;;5082291;28;20032;-70
2022/07/20 09:23:28;;;;;;;17.02;10.57;;;28.20;90.50;;;;;;5084974;28;20463;-71
2022/07/20 09:25:55;;;;;;;19.15;10.93;;;28.40;91.10;;;;;;5085291;28;20037;-70
2022/07/20 09:28:21;;;;;;;14.35;10.07;;;28.50;90.70;;;;;;5086628;28;20094;-71
2022/07/20 09:30:51;;;;;;;13.45;11.35;;;28.60;90.30;;;;;;5080076;28;20043;-71
2022/07/20 09:33:26;;;;;;;15.02;10.38;;;28.70;90.10;;;;;;5085600;28;20111;-71
2022/07/20 09:35:53;;;;;;;16.27;10.80;;;28.70;90.80;;;;;;5081387;28;20020;-71
2022/07/20 09:38:19;;;;;;;14.63;10.68;;;28.90;89.90;;;;;;5089816;28;20025;-71
2022/07/20 09:40:46;;;;;;;16.50;10.13;;;28.90;88.60;;;;;;5081015;28;20474;-70
2022/07/20 09:43:29;;;;;;;13.93;9.15;;;29.00;89.40;;;;;;5081154;28;20032;-70
2022/07/20 09:46:14;;;;;;;15.02;9.80;;;28.90;88.30;;;;;;5083932;28;20514;-70
2022/07/20 09:48:45;;;;;;;14.40;9.90;;;29.00;87.70;;;;;;5087366;28;20024;-70
2022/07/20 09:51:32;;;;;;;13.73;10.53;;;29.20;87.30;;;;;;5083244;28;20029;-71
2022/07/20 09:54:06;;;;;;;17.60;8.85;;;29.30;87.20;;;;;;5084343;28;20051;-69
2022/07/20 09:56:34;;;;;;;15.23;9.20;;;29.40;87.60;;;;;;5086151;28;20384;-70
2022/07/20 09:59:04;;;;;;;12.90;9.73;;;29.30;87.70;;;;;;5083744;28;20062;-72
2022/07/20 10:01:33;;;;;;;13.80;10.20;;;29.10;87.10;;;;;;5083373;28;20019;-70
2022/07/20 10:04:02;;;;;;;16.38;9.23;;;29.00;89.40;;;;;;5082315;28;20409;-71
2022/07/20 10:06:28;;;;;;;10.88;8.48;;;28.70;87.50;;;;;;5086210;28;20021;-70
2022/07/20 10:08:55;;;;;;;9.68;8.70;;;28.90;87.80;;;;;;5078429;28;20032;-70
2022/07/20 10:11:22;;;;;;;12.32;9.10;;;29.10;87.50;;;;;;5089963;28;20491;-71
2022/07/20 10:13:50;;;;;;;11.85;8.73;;;29.40;87.80;;;;;;5076707;28;20024;-71
2022/07/20 10:16:30;;;;;;;13.40;8.57;;;29.30;86.90;;;;;;5085416;28;20081;-71
2022/07/20 10:18:56;;;;;;;11.18;8.30;;;29.60;88.60;;;;;;5076819;28;20020;-71
2022/07/20 10:21:35;;;;;;;12.25;8.80;;;29.60;87.20;;;;;;5087967;28;20039;-71
2022/07/20 10:24:19;;;;;;;9.82;7.95;;;29.70;86.50;;;;;;5082175;28;20022;-71
2022/07/20 10:26:46;;;;;;;13.10;8.55;;;29.90;85.10;;;;;;5085593;28;20071;-70
2022/07/20 10:29:28;;;;;;;10.00;8.30;;;30.00;84.00;;;;;;5111169;27;20016;-71
2022/07/20 10:31:57;;;;;;;9.52;7.93;;;30.20;85.00;;;;;;5088107;28;20476;-71
2022/07/20 10:34:40;;;;;;;10.95;7.75;;;30.20;83.50;;;;;;5089072;28;20023;-71
2022/07/20 10:37:23;;;;;;;8.88;7.90;;;30.00;83.90;;;;;;5080667;28;20488;-71
2022/07/20 10:39:52;;;;;;;11.15;7.20;;;30.20;85.10;;;;;;5084954;28;20496;-71
2022/07/20 10:42:30;;;;;;;10.75;7.20;;;30.40;85.00;;;;;;5086906;28;20381;-71
2022/07/20 10:47:47;;;;;;;9.57;7.00;;;30.80;85.30;;;;;;5073914;28;20039;-71
2022/07/20 10:50:40;;;;;;;79.72;12.95;;;31.00;82.20;;;;;;5082054;28;20028;-72
2022/07/20 10:53:08;;;;;;;25.35;8.23;;;31.30;81.90;;;;;;5080940;28;20423;-71
2022/07/20 10:55:36;;;;;;;23.92;8.35;;;31.30;80.40;;;;;;5085596;28;20046;-71
2022/07/20 10:58:08;;;;;;;26.52;8.98;;;31.50;82.60;;;;;;5088128;28;20043;-70
2022/07/20 11:00:35;;;;;;;10.13;7.32;;;31.60;82.00;;;;;;5084635;28;20024;-70
2022/07/20 11:03:03;;;;;;;12.10;7.25;;;31.70;80.10;;;;;;5085612;28;20016;-70
2022/07/20 11:05:28;;;;;;;16.38;7.75;;;31.60;80.10;;;;;;5087813;28;20062;-72
2022/07/20 11:07:54;;;;;;;12.98;6.63;;;31.70;81.60;;;;;;5090816;28;20021;-72
2022/07/20 11:10:24;;;;;;;9.57;6.45;;;31.80;81.60;;;;;;5090315;28;20036;-71
2022/07/20 11:13:05;;;;;;;9.13;6.75;;;31.80;81.60;;;;;;5083000;28;20013;-72
2022/07/20 11:15:59;;;;;;;11.70;6.57;;;31.80;80.30;;;;;;5088051;28;20126;-72
2022/07/20 11:18:27;;;;;;;8.48;6.07;;;32.10;78.80;;;;;;5078045;28;20037;-72
2022/07/20 11:21:06;;;;;;;9.18;6.65;;;32.10;79.50;;;;;;5082647;28;20025;-72
2022/07/20 11:23:52;;;;;;;8.15;6.78;;;32.10;79.40;;;;;;5080371;28;20051;-72
2022/07/20 11:26:20;;;;;;;8.18;6.72;;;32.20;80.50;;;;;;5078853;28;20044;-72
2022/07/20 11:28:50;;;;;;;8.77;6.32;;;32.20;80.40;;;;;;5085149;28;20137;-71
2022/07/20 11:31:21;;;;;;;7.13;6.22;;;32.30;79.70;;;;;;5081819;28;20017;-71
2022/07/20 11:33:48;;;;;;;6.60;5.82;;;32.40;77.60;;;;;;5082363;28;20468;-72
2022/07/20 11:36:37;;;;;;;7.13;5.60;;;32.50;76.90;;;;;;5083962;28;20123;-72
2022/07/20 11:39:05;;;;;;;7.75;5.65;;;32.40;76.30;;;;;;5086929;28;20036;-72
2022/07/20 11:41:31;;;;;;;7.88;5.88;;;32.50;78.80;;;;;;5084114;28;20019;-71
2022/07/20 11:43:58;;;;;;;9.55;6.03;;;32.60;78.00;;;;;;5085240;28;20046;-71
2022/07/20 11:46:26;;;;;;;6.95;6.18;;;32.70;76.90;;;;;;5087788;28;20031;-71
2022/07/20 11:49:01;;;;;;;7.43;5.85;;;32.80;76.50;;;;;;5087314;28;20035;-71
2022/07/20 11:51:29;;;;;;;7.03;5.60;;;32.90;77.20;;;;;;5086304;28;20372;-71
2022/07/20 11:53:56;;;;;;;6.20;5.60;;;32.80;76.70;;;;;;5089303;28;20020;-72
2022/07/20 11:56:25;;;;;;;8.00;5.65;;;32.80;78.20;;;;;;5090267;28;20035;-72
2022/07/20 11:58:54;;;;;;;6.47;5.88;;;32.70;77.30;;;;;;5079219;28;20028;-71
2022/07/20 12:01:29;;;;;;;6.90;5.97;;;32.60;77.00;;;;;;5086086;28;20107;-71
2022/07/20 12:04:00;;;;;;;6.43;5.82;;;32.50;75.70;;;;;;5088350;28;20119;-71
2022/07/20 12:06:28;;;;;;;7.78;5.57;;;32.60;76.60;;;;;;5087500;28;20040;-72
2022/07/20 12:09:32;;;;;;;6.78;6.07;;;32.70;73.90;;;;;;5097803;28;20021;-72
2022/07/20 12:12:04;;;;;;;7.57;6.05;;;32.70;75.90;;;;;;5074972;28;20051;-71
2022/07/20 12:14:43;;;;;;;10.30;5.72;;;32.90;76.00;;;;;;5091075;28;20454;-71
2022/07/20 12:17:16;;;;;;;6.78;6.13;;;32.70;75.80;;;;;;5090815;28;20016;-72
2022/07/20 12:19:44;;;;;;;6.18;5.57;;;32.60;75.90;;;;;;5082949;28;20044;-71
2022/07/20 12:22:16;;;;;;;7.63;6.35;;;32.50;76.20;;;;;;5088506;28;20046;-71
2022/07/20 12:24:59;;;;;;;6.88;6.13;;;32.30;76.30;;;;;;5093589;28;20404;-71
2022/07/20 12:27:31;;;;;;;12.35;6.57;;;32.20;77.50;;;;;;5092352;28;20481;-71
2022/07/20 12:29:58;;;;;;;6.43;5.63;;;32.10;78.40;;;;;;5091305;28;20016;-71
2022/07/20 12:32:35;;;;;;;6.15;5.55;;;32.10;77.30;;;;;;5092480;28;20028;-72
2022/07/20 12:35:04;;;;;;;6.85;6.15;;;32.20;77.70;;;;;;5093903;28;20103;-71
2022/07/20 12:37:53;;;;;;;5.90;5.05;;;32.40;77.70;;;;;;5088476;28;20412;-71
2022/07/20 12:40:57;;;;;;;6.65;5.07;;;32.40;77.40;;;;;;5093035;28;20126;-71
2022/07/20 12:43:33;;;;;;;8.07;6.28;;;32.40;77.20;;;;;;5006730;28;20109;-72
2022/07/20 12:46:05;;;;;;;6.05;5.45;;;32.40;78.50;;;;;;5004570;28;20045;-71